Terminal Aerodrome Forecast
Issued by NWS Cleveland, OH

Home | Current Version | Previous Version | Text Only | Print | Product List | Glossary Off
Versions: 1 2 3 4 5 6 7 8 9 10 11 12 13 14 15 16 17 18

000
FTUS41 KCLE 261700
TAFCAK
TAF
KCAK 261735Z 2618/2718 21012G16KT P6SM SCT250
     FM262200 20012KT P6SM SCT250
     FM270000 20008KT P6SM BKN250
     FM271000 20008KT P6SM BKN050
     FM271300 20006KT P6SM BKN040=

USA.gov is the U.S. government's official web portal to all federal, state and local government web resources and services.